Time;durP1;ratioP1;P1;durP2;ratioP2;P2;SDS_P1;SDS_P2;PMS_P1;PMS_P2;Temp;Humidity;BMP_temperature;BMP_pressure;BME280_temperature;BME280_humidity;BME280_pressure;Samples;Min_cycle;Max_cycle;Signal;HPM_P1;HPM_P2
2021/12/11 00:00:54;;;;;;;;;;;;;;;20.13;37.62;100889.66;7281995;19;155142;-50
2021/12/11 00:03:26;;;;;;;;;;;;;;;20.09;37.84;100882.19;7286052;19;151805;-51
2021/12/11 00:05:59;;;;;;;;;;;;;;;20.06;38.04;100882.81;7284318;19;152977;-50
2021/12/11 00:08:27;;;;;;;;;;;;;;;20.01;38.33;100882.88;7278736;19;153529;-51
2021/12/11 00:10:58;;;;;;;;;;;;;;;19.98;38.51;100893.59;7281844;19;152235;-51
2021/12/11 00:13:28;;;;;;;;;;;;;;;19.95;38.18;100902.59;7282611;19;153164;-50
2021/12/11 00:15:55;;;;;;;;;;;;;;;19.89;38.25;100891.78;7286740;19;153825;-51
2021/12/11 00:18:24;;;;;;;;;;;;;;;19.87;38.50;100900.50;7259543;19;153535;-50
2021/12/11 00:21:00;;;;;;;;;;;;;;;19.83;38.29;100899.44;7281761;19;152286;-50
2021/12/11 00:23:30;;;;;;;;;;;;;;;19.81;38.27;100910.13;7282230;19;151894;-49
2021/12/11 00:25:56;;;;;;;;;;;;;;;19.77;38.44;100900.66;7281428;19;153833;-50
2021/12/11 00:28:24;;;;;;;;;;;;;;;19.78;38.93;100912.69;7276127;19;153135;-50
2021/12/11 00:30:51;;;;;;;;;;;;;;;19.78;38.58;100916.34;7282524;19;152088;-50
2021/12/11 00:33:19;;;;;;;;;;;;;;;19.79;38.90;100919.97;7279035;19;153172;-50
2021/12/11 00:35:46;;;;;;;;;;;;;;;19.79;38.63;100922.78;7278864;19;153433;-50
2021/12/11 00:38:15;;;;;;;;;;;;;;;19.78;38.50;100921.94;7286615;19;152090;-50
2021/12/11 00:40:44;;;;;;;;;;;;;;;19.75;38.98;100924.53;7278196;19;154416;-50
2021/12/11 00:43:15;;;;;;;;;;;;;;;19.74;38.60;100922.84;7281930;19;152006;-50
2021/12/11 00:45:43;;;;;;;;;;;;;;;19.72;38.73;100919.50;7281990;19;153112;-49
2021/12/11 00:48:11;;;;;;;;;;;;;;;19.72;38.77;100925.97;7274965;19;152487;-50
2021/12/11 00:50:44;;;;;;;;;;;;;;;19.62;38.96;100928.94;7280449;19;152233;-50
2021/12/11 00:53:11;;;;;;;;;;;;;;;19.56;39.11;100932.09;7279952;19;153768;-50
2021/12/11 00:55:41;;;;;;;;;;;;;;;19.49;39.13;100936.09;7280817;19;153337;-50
2021/12/11 00:58:18;;;;;;;;;;;;;;;19.53;39.39;100939.16;7283397;19;152825;-50
2021/12/11 01:00:48;;;;;;;;;;;;;;;19.49;39.51;100938.91;7288119;19;153191;-50
2021/12/11 01:03:18;;;;;;;;;;;;;;;19.43;39.65;100945.72;7281017;19;152481;-50
2021/12/11 01:05:46;;;;;;;;;;;;;;;19.37;39.43;100946.91;7280900;19;153870;-50
2021/12/11 01:08:16;;;;;;;;;;;;;;;19.33;39.63;100948.63;7277237;19;153635;-50
2021/12/11 01:10:44;;;;;;;;;;;;;;;19.31;39.45;100952.84;7278445;19;152484;-50
2021/12/11 01:13:14;;;;;;;;;;;;;;;19.27;39.52;100958.22;7281756;19;153449;-51
2021/12/11 01:15:45;;;;;;;;;;;;;;;19.23;39.72;100968.38;7275297;19;153041;-50
2021/12/11 01:20:52;;;;;;;;;;;;;;;19.17;40.00;100972.34;7274928;19;153556;-50
2021/12/11 01:25:56;;;;;;;;;;;;;;;19.11;39.87;100987.56;7280987;19;153163;-50
2021/12/11 01:28:23;;;;;;;;;;;;;;;19.07;39.92;100981.72;7275154;19;152739;-50
2021/12/11 01:30:50;;;;;;;;;;;;;;;19.05;40.32;100992.38;7280217;19;151941;-50
2021/12/11 01:33:17;;;;;;;;;;;;;;;19.03;40.03;100991.84;7277277;19;153125;-50
2021/12/11 01:35:43;;;;;;;;;;;;;;;18.97;40.25;100990.25;7278929;19;154251;-49
2021/12/11 01:38:12;;;;;;;;;;;;;;;18.97;40.49;101007.03;7277937;19;152406;-50
2021/12/11 01:40:39;;;;;;;;;;;;;;;18.93;40.41;101013.53;7280386;19;153458;-49
2021/12/11 01:43:07;;;;;;;;;;;;;;;18.90;40.20;101019.69;7278416;19;154606;-50
2021/12/11 01:45:34;;;;;;;;;;;;;;;18.92;40.49;101028.66;7285270;19;153095;-50
2021/12/11 01:48:02;;;;;;;;;;;;;;;18.89;40.43;101024.50;7273939;19;154218;-50
2021/12/11 01:50:33;;;;;;;;;;;;;;;18.85;40.46;101033.78;7278736;19;152017;-50
2021/12/11 01:53:02;;;;;;;;;;;;;;;18.82;40.83;101034.34;7278378;19;153200;-50
2021/12/11 01:55:31;;;;;;;;;;;;;;;18.83;40.96;101042.47;7284318;19;154593;-50
2021/12/11 01:58:00;;;;;;;;;;;;;;;18.81;40.93;101033.50;7286051;19;152163;-50
2021/12/11 02:00:30;;;;;;;;;;;;;;;18.76;40.89;101041.16;7285464;19;153403;-50
2021/12/11 02:02:59;;;;;;;;;;;;;;;18.76;40.75;101029.94;7287840;19;154185;-50
2021/12/11 02:05:27;;;;;;;;;;;;;;;18.76;41.04;101039.16;7283346;19;152536;-50
2021/12/11 02:07:55;;;;;;;;;;;;;;;18.71;41.08;101044.81;7289897;19;153699;-49
2021/12/11 02:10:28;;;;;;;;;;;;;;;18.71;41.36;101043.97;7285284;19;152462;-50
2021/12/11 02:12:57;;;;;;;;;;;;;;;18.67;41.41;101054.91;7288610;19;153764;-50
2021/12/11 02:15:30;;;;;;;;;;;;;;;18.64;41.14;101061.09;7285324;19;154208;-50
2021/12/11 02:18:01;;;;;;;;;;;;;;;18.61;41.49;101065.34;7286397;19;152213;-50
2021/12/11 02:20:31;;;;;;;;;;;;;;;18.61;41.68;101065.34;7285752;19;153444;-50
2021/12/11 02:22:58;;;;;;;;;;;;;;;18.57;42.01;101071.81;7285331;19;152869;-50
2021/12/11 02:25:30;;;;;;;;;;;;;;;18.59;41.70;101075.97;7285916;19;152326;-50
2021/12/11 02:28:04;;;;;;;;;;;;;;;18.52;41.55;101074.63;7291988;19;154866;-50
2021/12/11 02:30:35;;;;;;;;;;;;;;;18.53;41.66;101085.53;7285674;19;152268;-50
2021/12/11 02:33:13;;;;;;;;;;;;;;;18.50;42.16;101080.50;7283953;19;153833;-50
2021/12/11 02:35:43;;;;;;;;;;;;;;;18.46;41.88;101070.16;7285031;19;153475;-49
2021/12/11 02:38:16;;;;;;;;;;;;;;;18.43;41.87;101077.19;7285319;19;151915;-50
2021/12/11 02:40:46;;;;;;;;;;;;;;;18.40;41.92;101079.72;7286679;19;153384;-51
2021/12/11 02:43:17;;;;;;;;;;;;;;;18.37;42.23;101081.16;7284542;19;154450;-50
2021/12/11 02:45:53;;;;;;;;;;;;;;;18.35;42.16;101069.41;7285719;19;152068;-50
2021/12/11 02:48:23;;;;;;;;;;;;;;;18.33;42.18;101065.25;7285263;19;153041;-50
2021/12/11 02:50:55;;;;;;;;;;;;;;;18.34;42.34;101070.56;7293944;19;154584;-49
2021/12/11 02:53:27;;;;;;;;;;;;;;;18.30;42.79;101082.63;7286608;19;152316;-50
2021/12/11 02:55:57;;;;;;;;;;;;;;;18.26;42.40;101085.13;7284769;19;153253;-50
2021/12/11 02:58:27;;;;;;;;;;;;;;;18.25;42.69;101089.06;7283692;19;151844;-50
2021/12/11 03:00:59;;;;;;;;;;;;;;;18.22;42.77;101092.44;7283901;19;152629;-50
2021/12/11 03:03:30;;;;;;;;;;;;;;;18.22;42.66;101098.03;7281530;19;153098;-49
2021/12/11 03:06:05;;;;;;;;;;;;;;;18.20;42.57;101105.88;7283377;19;152391;-50
2021/12/11 03:08:32;;;;;;;;;;;;;;;18.16;42.93;101108.44;7283243;19;152319;-50
2021/12/11 03:11:02;;;;;;;;;;;;;;;18.15;42.69;101114.28;7281753;19;153822;-50
2021/12/11 03:13:31;;;;;;;;;;;;;;;18.12;42.71;101121.31;7290487;19;152019;-50
2021/12/11 03:15:58;;;;;;;;;;;;;;;18.13;42.85;101120.16;7280726;19;153473;-50
2021/12/11 03:18:25;;;;;;;;;;;;;;;18.13;42.97;101108.16;7286094;19;152168;-52
2021/12/11 03:20:52;;;;;;;;;;;;;;;18.09;42.86;101104.25;7282431;19;152761;-50
2021/12/11 03:23:19;;;;;;;;;;;;;;;18.07;43.20;101115.75;7282467;19;153451;-50
2021/12/11 03:25:46;;;;;;;;;;;;;;;18.05;43.37;101112.38;7283252;19;154534;-50
2021/12/11 03:28:14;;;;;;;;;;;;;;;18.05;43.17;101114.34;7281341;19;151899;-50
2021/12/11 03:30:43;;;;;;;;;;;;;;;18.04;43.15;101107.06;7282464;19;154034;-50
2021/12/11 03:33:13;;;;;;;;;;;;;;;18.00;43.21;101101.22;7283838;19;151705;-50
2021/12/11 03:35:40;;;;;;;;;;;;;;;17.99;43.47;101105.16;7291169;19;153372;-50
2021/12/11 03:38:08;;;;;;;;;;;;;;;17.98;43.66;101100.69;7283782;19;151924;-50
2021/12/11 03:40:35;;;;;;;;;;;;;;;17.96;43.29;101085.31;7282051;19;152777;-50
2021/12/11 03:43:04;;;;;;;;;;;;;;;17.95;43.30;101089.22;7284613;19;153898;-50
2021/12/11 03:45:33;;;;;;;;;;;;;;;17.94;43.63;101082.84;7282356;19;152086;-49
2021/12/11 03:48:04;;;;;;;;;;;;;;;17.91;43.19;101090.94;7283278;19;152945;-50
2021/12/11 03:50:30;;;;;;;;;;;;;;;17.89;43.77;101102.41;7283245;19;153545;-50
2021/12/11 03:52:57;;;;;;;;;;;;;;;17.91;43.32;101099.31;7281244;19;151889;-50
2021/12/11 03:55:27;;;;;;;;;;;;;;;17.88;43.59;101094.31;7280943;19;153626;-49
2021/12/11 03:57:58;;;;;;;;;;;;;;;17.84;43.62;101096.84;7288272;19;152605;-50
2021/12/11 04:00:27;;;;;;;;;;;;;;;17.83;43.80;101102.72;7280635;19;152963;-51
2021/12/11 04:03:02;;;;;;;;;;;;;;;17.80;43.71;101097.72;7278848;19;153727;-49
2021/12/11 04:05:30;;;;;;;;;;;;;;;17.80;44.01;101106.09;7281754;19;152077;-49
2021/12/11 04:07:57;;;;;;;;;;;;;;;17.77;44.27;101101.91;7281272;19;152427;-50
2021/12/11 04:10:27;;;;;;;;;;;;;;;17.76;44.18;101103.84;7281709;19;153967;-50
2021/12/11 04:12:56;;;;;;;;;;;;;;;17.75;44.27;101105.00;7282101;19;152241;-50
2021/12/11 04:15:23;;;;;;;;;;;;;;;17.72;44.32;101122.31;7280830;19;153451;-50
2021/12/11 04:17:50;;;;;;;;;;;;;;;17.71;44.20;101131.00;7279802;19;153455;-50
2021/12/11 04:20:18;;;;;;;;;;;;;;;17.70;44.17;101132.13;7290654;19;151624;-50
2021/12/11 04:22:45;;;;;;;;;;;;;;;17.70;44.09;101140.50;7282907;19;153818;-50
2021/12/11 04:25:13;;;;;;;;;;;;;;;17.68;44.55;101137.13;7281375;19;152264;-50
2021/12/11 04:27:40;;;;;;;;;;;;;;;17.66;44.35;101143.03;7280566;19;152469;-50
2021/12/11 04:30:09;;;;;;;;;;;;;;;17.67;44.48;101146.66;7281395;19;153684;-50
2021/12/11 04:32:36;;;;;;;;;;;;;;;17.67;44.60;101153.06;7283645;19;151714;-50
2021/12/11 04:35:04;;;;;;;;;;;;;;;17.64;44.75;101153.66;7281407;19;152539;-50
2021/12/11 04:37:32;;;;;;;;;;;;;;;17.65;44.65;101157.28;7281111;19;152385;-51
2021/12/11 04:40:05;;;;;;;;;;;;;;;17.62;44.72;101158.69;7291110;19;152570;-52
2021/12/11 04:45:01;;;;;;;;;;;;;;;17.61;44.68;101157.03;7282798;19;151777;-49
2021/12/11 04:47:35;;;;;;;;;;;;;;;17.58;44.77;101162.31;7282651;19;152821;-50
2021/12/11 04:50:06;;;;;;;;;;;;;;;17.59;44.42;101156.44;7277013;19;154143;-49
2021/12/11 04:52:41;;;;;;;;;;;;;;;17.56;44.86;101162.59;7281218;19;152217;-50
2021/12/11 05:01:05;;;;;;;;;;;;;;;17.54;44.51;101172.34;7280830;19;152475;-50
2021/12/11 05:09:33;;;;;;;;;;;;;;;17.51;44.78;101172.94;7279446;19;153346;-51
2021/12/11 05:11:22;;;;;;;;;;;;;;;17.49;44.76;101183.56;7275759;19;152242;-50
2021/12/11 05:13:49;;;;;;;;;;;;;;;17.50;44.47;101179.63;7279968;19;151921;-51
2021/12/11 05:16:15;;;;;;;;;;;;;;;17.48;44.82;101173.50;7282755;19;153528;-49
2021/12/11 05:18:43;;;;;;;;;;;;;;;17.47;44.96;101177.41;7280241;19;154022;-50
2021/12/11 05:21:18;;;;;;;;;;;;;;;17.44;44.85;101186.34;7281214;19;152653;-50
2021/12/11 05:23:46;;;;;;;;;;;;;;;17.41;45.07;101184.94;7281603;19;153298;-50
2021/12/11 05:26:13;;;;;;;;;;;;;;;17.41;45.12;101186.91;7286598;19;154444;-50
2021/12/11 05:28:40;;;;;;;;;;;;;;;17.37;44.79;101183.00;7275682;19;152431;-50
2021/12/11 05:31:08;;;;;;;;;;;;;;;17.39;44.82;101191.94;7277981;19;154324;-49
2021/12/11 05:33:36;;;;;;;;;;;;;;;17.37;45.09;101191.38;7278952;19;152167;-50
2021/12/11 05:36:06;;;;;;;;;;;;;;;17.35;44.97;101203.66;7279675;19;153361;-50
2021/12/11 05:38:35;;;;;;;;;;;;;;;17.33;45.23;101205.91;7277987;19;155081;-50
2021/12/11 05:41:04;;;;;;;;;;;;;;;17.32;45.11;101220.16;7278033;19;151885;-51
2021/12/11 05:43:32;;;;;;;;;;;;;;;17.30;45.22;101225.19;7280479;19;153479;-50
2021/12/11 05:45:59;;;;;;;;;;;;;;;17.30;45.12;101225.19;7276638;19;154338;-50
2021/12/11 05:48:26;;;;;;;;;;;;;;;17.29;44.99;101235.53;7283948;19;152552;-50
2021/12/11 05:50:54;;;;;;;;;;;;;;;17.29;45.00;101229.09;7277139;19;154050;-50
2021/12/11 05:53:21;;;;;;;;;;;;;;;17.28;45.23;101235.78;7279810;19;151930;-50
2021/12/11 05:55:50;;;;;;;;;;;;;;;17.26;44.85;101241.66;7277960;19;153445;-50
2021/12/11 05:58:34;;;;;;;;;;;;;;;17.23;45.11;101242.22;7275861;19;153649;-50
2021/12/11 06:01:02;;;;;;;;;;;;;;;17.22;45.12;101240.53;7280152;19;152214;-50
2021/12/11 06:03:29;;;;;;;;;;;;;;;17.22;45.04;101245.28;7281145;19;153360;-52
2021/12/11 06:05:58;;;;;;;;;;;;;;;17.25;44.96;101237.19;7276782;19;152429;-51
2021/12/11 06:08:24;;;;;;;;;;;;;;;17.36;45.64;101235.22;7276030;19;151972;-50
2021/12/11 06:10:51;;;;;;;;;;;;;;;17.43;45.62;101240.53;7287076;19;153250;-51
2021/12/11 06:13:18;;;;;;;;;;;;;;;17.47;45.58;101242.50;7280791;19;151539;-50
2021/12/11 06:15:45;;;;;;;;;;;;;;;17.52;45.28;101245.28;7276617;19;153358;-51
2021/12/11 06:18:17;;;;;;;;;;;;;;;17.57;45.82;101253.66;7277179;19;152820;-50
2021/12/11 06:20:45;;;;;;;;;;;;;;;17.61;45.93;101243.63;7280112;19;152374;-50
2021/12/11 06:23:12;;;;;;;;;;;;;;;17.67;46.02;101250.88;7280100;19;152136;-50
2021/12/11 06:25:39;;;;;;;;;;;;;;;17.74;45.91;101243.03;7276107;19;153495;-50
2021/12/11 06:28:06;;;;;;;;;;;;;;;17.84;46.11;101244.16;7278770;19;152483;-50
2021/12/11 06:30:34;;;;;;;;;;;;;;;17.91;45.83;101253.06;7275784;19;153317;-50
2021/12/11 06:33:02;;;;;;;;;;;;;;;17.97;45.49;101266.75;7285621;19;152098;-50
2021/12/11 06:35:31;;;;;;;;;;;;;;;18.03;45.98;101267.59;7277653;19;153283;-50
2021/12/11 06:37:58;;;;;;;;;;;;;;;18.10;46.01;101268.09;7276856;19;154067;-49
2021/12/11 06:40:25;;;;;;;;;;;;;;;18.16;45.96;101273.41;7279744;19;151903;-50
2021/12/11 06:42:53;;;;;;;;;;;;;;;18.24;45.49;101271.97;7283284;19;153966;-50
2021/12/11 06:45:20;;;;;;;;;;;;;;;18.31;45.34;101277.25;7281660;19;153607;-50
2021/12/11 06:47:47;;;;;;;;;;;;;;;18.38;45.35;101275.00;7285008;19;152438;-49
2021/12/11 06:50:14;;;;;;;;;;;;;;;18.46;45.06;101271.59;7282600;19;151984;-50
2021/12/11 06:52:41;;;;;;;;;;;;;;;18.52;44.90;101281.66;7290537;19;156272;-50
2021/12/11 06:55:11;;;;;;;;;;;;;;;18.59;44.65;101287.81;7283615;19;153592;-50
2021/12/11 06:57:37;;;;;;;;;;;;;;;18.68;45.06;101274.88;7281861;19;153754;-50
2021/12/11 07:00:05;;;;;;;;;;;;;;;18.75;44.67;101272.63;7284487;19;152073;-50
2021/12/11 07:02:33;;;;;;;;;;;;;;;18.81;44.60;101277.03;7282315;19;153129;-50
2021/12/11 07:04:59;;;;;;;;;;;;;;;18.88;44.64;101279.53;7282894;19;153644;-50
2021/12/11 07:07:32;;;;;;;;;;;;;;;18.93;44.68;101282.31;7282722;19;152722;-50
2021/12/11 07:09:59;;;;;;;;;;;;;;;19.01;44.68;101285.34;7282428;19;153965;-50
2021/12/11 07:12:26;;;;;;;;;;;;;;;19.08;44.65;101290.59;7282564;19;152086;-50
2021/12/11 07:14:52;;;;;;;;;;;;;;;19.14;44.44;101295.03;7290548;19;152112;-49
2021/12/11 07:17:20;;;;;;;;;;;;;;;19.20;44.27;101295.84;7284000;19;153830;-50
2021/12/11 07:19:47;;;;;;;;;;;;;;;19.25;44.08;101293.84;7285279;19;151988;-48
2021/12/11 07:22:14;;;;;;;;;;;;;;;19.30;44.04;101290.19;7280807;19;151768;-50
2021/12/11 07:24:45;;;;;;;;;;;;;;;19.36;43.95;101289.84;7284598;19;154207;-50
2021/12/11 07:27:12;;;;;;;;;;;;;;;19.43;43.34;101287.59;7285631;19;152200;-49
2021/12/11 07:29:39;;;;;;;;;;;;;;;19.47;43.35;101282.22;7282774;19;153967;-50
2021/12/11 07:32:07;;;;;;;;;;;;;;;19.54;44.10;101291.13;7285810;19;153581;-49
2021/12/11 07:34:34;;;;;;;;;;;;;;;19.58;43.55;101297.81;7285455;19;151648;-50
2021/12/11 07:37:02;;;;;;;;;;;;;;;19.65;43.72;101312.34;7290542;19;153369;-50
2021/12/11 07:39:29;;;;;;;;;;;;;;;19.70;43.16;101319.88;7284450;19;151835;-50
2021/12/11 07:41:56;;;;;;;;;;;;;;;19.74;43.67;101324.59;7284244;19;153130;-51
2021/12/11 07:44:24;;;;;;;;;;;;;;;19.80;43.34;101325.38;7283351;19;152906;-50
2021/12/11 07:46:51;;;;;;;;;;;;;;;19.84;43.46;101326.47;7283603;19;151648;-49
2021/12/11 07:49:19;;;;;;;;;;;;;;;19.89;43.25;101326.44;7282965;19;154098;-49
2021/12/11 07:51:48;;;;;;;;;;;;;;;19.93;43.10;101324.69;7283040;19;153910;-50
2021/12/11 07:54:14;;;;;;;;;;;;;;;19.98;43.13;101327.47;7282778;19;152018;-49
2021/12/11 07:56:41;;;;;;;;;;;;;;;20.03;43.15;101332.19;7280889;19;152202;-50
2021/12/11 07:59:09;;;;;;;;;;;;;;;20.08;43.22;101335.75;7291342;19;154512;-50
2021/12/11 08:01:37;;;;;;;;;;;;;;;20.12;42.82;101341.63;7283939;19;151660;-49
2021/12/11 08:04:05;;;;;;;;;;;;;;;20.17;42.94;101350.81;7280120;19;153355;-50
2021/12/11 08:06:33;;;;;;;;;;;;;;;20.22;42.64;101350.75;7283883;19;151914;-50
2021/12/11 08:09:00;;;;;;;;;;;;;;;20.26;42.70;101351.03;7278734;19;153199;-50
2021/12/11 08:11:28;;;;;;;;;;;;;;;20.31;42.83;101345.34;7279604;19;153667;-50
2021/12/11 08:13:56;;;;;;;;;;;;;;;20.35;42.49;101349.28;7281505;19;151845;-51
2021/12/11 08:16:26;;;;;;;;;;;;;;;20.38;42.48;101343.06;7280733;19;152834;-50
2021/12/11 08:18:53;;;;;;;;;;;;;;;20.42;42.32;101352.53;7279943;19;152293;-51
2021/12/11 08:21:21;;;;;;;;;;;;;;;20.44;42.08;101349.44;7291686;19;152222;-50
2021/12/11 08:23:53;;;;;;;;;;;;;;;20.47;41.98;101354.47;7278530;19;154662;-50
2021/12/11 08:26:22;;;;;;;;;;;;;;;20.49;42.25;101355.00;7282393;19;152644;-50
2021/12/11 08:28:50;;;;;;;;;;;;;;;20.49;41.69;101355.00;7283438;19;153162;-50
2021/12/11 08:31:19;;;;;;;;;;;;;;;20.53;42.20;101370.13;7279520;19;152569;-50
2021/12/11 08:33:46;;;;;;;;;;;;;;;20.53;42.05;101361.69;7281118;19;152030;-50
2021/12/11 08:36:13;;;;;;;;;;;;;;;20.54;41.84;101368.97;7283112;19;153181;-50
2021/12/11 08:38:41;;;;;;;;;;;;;;;20.53;42.11;101365.34;7278682;19;153799;-50
2021/12/11 08:41:09;;;;;;;;;;;;;;;20.55;41.76;101370.63;7290487;19;152326;-50
2021/12/11 08:43:35;;;;;;;;;;;;;;;20.53;41.94;101368.16;7279854;19;153958;-50
2021/12/11 08:46:09;;;;;;;;;;;;;;;20.53;41.92;101373.75;7281642;19;152221;-50
2021/12/11 08:48:38;;;;;;;;;;;;;;;20.53;41.49;101378.53;7283400;19;153296;-50
2021/12/11 08:51:08;;;;;;;;;;;;;;;20.52;42.06;101377.69;7278263;19;154044;-51
2021/12/11 08:53:36;;;;;;;;;;;;;;;20.51;41.62;101392.03;7281777;19;152078;-50
2021/12/11 08:56:05;;;;;;;;;;;;;;;20.49;41.97;101394.31;7279183;19;153182;-51
2021/12/11 08:58:31;;;;;;;;;;;;;;;20.46;41.58;101406.94;7282483;19;153337;-49
2021/12/11 09:01:03;;;;;;;;;;;;;;;20.46;41.53;101409.75;7281725;19;152046;-50
2021/12/11 09:03:33;;;;;;;;;;;;;;;20.43;41.78;101404.75;7286405;19;154549;-50
2021/12/11 09:06:03;;;;;;;;;;;;;;;20.40;41.90;101405.31;7280941;19;152199;-50
2021/12/11 09:08:34;;;;;;;;;;;;;;;20.38;41.52;101402.00;7281848;19;153718;-50
2021/12/11 09:11:06;;;;;;;;;;;;;;;20.36;41.80;101407.88;7276466;19;154886;-50
2021/12/11 09:13:33;;;;;;;;;;;;;;;20.35;42.01;101413.81;7278722;19;152091;-50
2021/12/11 09:16:04;;;;;;;;;;;;;;;20.32;41.70;101428.41;7282701;19;153530;-50
2021/12/11 09:18:34;;;;;;;;;;;;;;;20.30;41.80;101433.50;7281221;19;152643;-51
2021/12/11 09:21:05;;;;;;;;;;;;;;;20.27;42.14;101428.44;7284911;19;151624;-50
2021/12/11 09:23:36;;;;;;;;;;;;;;;20.24;41.95;101429.88;7280739;19;154350;-50
2021/12/11 09:26:13;;;;;;;;;;;;;;;20.23;41.95;101436.59;7286642;19;153436;-50
2021/12/11 09:28:43;;;;;;;;;;;;;;;20.21;42.17;101438.88;7281988;19;153553;-50
2021/12/11 09:31:11;;;;;;;;;;;;;;;20.19;42.59;101441.13;7276047;19;154309;-50
2021/12/11 09:33:41;;;;;;;;;;;;;;;20.17;42.18;101448.19;7281452;19;152318;-49
2021/12/11 09:36:11;;;;;;;;;;;;;;;20.12;42.35;101440.66;7281913;19;152926;-50
2021/12/11 09:38:42;;;;;;;;;;;;;;;20.11;42.54;101452.16;7279944;19;154720;-50
2021/12/11 09:41:21;;;;;;;;;;;;;;;20.07;42.68;101451.06;7280920;19;152588;-50
2021/12/11 09:43:52;;;;;;;;;;;;;;;20.05;42.55;101453.31;7280653;19;152440;-49
2021/12/11 09:46:22;;;;;;;;;;;;;;;20.04;42.61;101460.91;7279568;19;153976;-50
2021/12/11 09:48:49;;;;;;;;;;;;;;;20.02;42.37;101456.72;7287646;19;151693;-50
2021/12/11 09:51:18;;;;;;;;;;;;;;;19.99;42.33;101464.56;7278089;19;154009;-48
2021/12/11 09:53:48;;;;;;;;;;;;;;;19.99;42.58;101455.31;7281337;19;152332;-50
2021/12/11 09:56:18;;;;;;;;;;;;;;;20.00;42.40;101465.41;7280560;19;152088;-50
2021/12/11 09:58:45;;;;;;;;;;;;;;;19.97;42.57;101469.66;7277231;19;152757;-50
2021/12/11 10:01:16;;;;;;;;;;;;;;;19.94;42.56;101463.81;7280545;19;151863;-50
2021/12/11 10:03:47;;;;;;;;;;;;;;;19.88;42.64;101457.38;7278901;19;153424;-50
2021/12/11 10:06:37;;;;;;;;;;;;;;;19.80;42.93;101448.75;7279292;19;153422;-50
2021/12/11 10:09:17;;;;;;;;;;;;;;;19.84;43.27;101445.09;7275735;19;151938;-50
2021/12/11 10:11:47;;;;;;;;;;;;;;;19.77;43.11;101433.34;7283129;19;152891;-50
2021/12/11 10:14:15;;;;;;;;;;;;;;;19.74;42.99;101439.53;7280702;19;152109;-50
2021/12/11 10:16:43;;;;;;;;;;;;;;;19.73;43.01;101440.66;7287017;19;154108;-50
2021/12/11 10:19:12;;;;;;;;;;;;;;;19.72;42.66;101447.38;7283749;19;154240;-50
2021/12/11 10:21:42;;;;;;;;;;;;;;;19.73;42.60;101451.03;7286149;19;152293;-50
2021/12/11 10:24:14;;;;;;;;;;;;;;;19.54;40.05;101454.50;7286987;19;153330;-49
2021/12/11 10:26:41;;;;;;;;;;;;;;;19.58;41.04;101463.19;7283539;19;152640;-50
2021/12/11 10:29:10;;;;;;;;;;;;;;;19.69;41.74;101458.34;7283465;19;152909;-49
2021/12/11 10:31:40;;;;;;;;;;;;;;;19.71;41.86;101458.91;7284265;19;152255;-50
2021/12/11 10:34:09;;;;;;;;;;;;;;;19.74;41.81;101456.38;7291661;19;153920;-49
2021/12/11 10:36:38;;;;;;;;;;;;;;;19.78;42.29;101460.25;7283395;19;152387;-50
2021/12/11 10:39:08;;;;;;;;;;;;;;;19.84;42.10;101458.25;7283533;19;153479;-50
2021/12/11 10:41:35;;;;;;;;;;;;;;;19.90;42.35;101459.88;7283928;19;152570;-50
2021/12/11 10:44:06;;;;;;;;;;;;;;;19.97;41.92;101455.63;7282897;19;152960;-50
2021/12/11 10:46:34;;;;;;;;;;;;;;;19.99;42.04;101467.38;7282227;19;153142;-50
2021/12/11 10:49:03;;;;;;;;;;;;;;;20.06;42.13;101480.25;7285369;19;151884;-50
2021/12/11 10:51:32;;;;;;;;;;;;;;;20.11;42.20;101474.59;7283879;19;152365;-51
2021/12/11 10:53:59;;;;;;;;;;;;;;;20.15;41.64;101470.06;7292746;19;153926;-49
2021/12/11 10:56:26;;;;;;;;;;;;;;;20.15;41.57;101472.88;7283093;19;152719;-51
2021/12/11 10:58:55;;;;;;;;;;;;;;;20.16;41.00;101481.00;7282868;19;153818;-50
2021/12/11 11:01:28;;;;;;;;;;;;;;;20.17;40.56;101470.63;7286329;19;152208;-50
2021/12/11 11:03:59;;;;;;;;;;;;;;;20.19;40.54;101465.56;7282127;19;151789;-50
2021/12/11 11:06:27;;;;;;;;;;;;;;;20.21;40.35;101461.34;7280849;19;153940;-50
2021/12/11 11:08:54;;;;;;;;;;;;;;;20.25;40.15;101453.16;7279833;19;152468;-49
2021/12/11 11:11:22;;;;;;;;;;;;;;;20.26;40.14;101452.84;7280974;19;152796;-50
2021/12/11 11:13:50;;;;;;;;;;;;;;;20.30;39.53;101464.38;7279135;19;152655;-50
2021/12/11 11:16:18;;;;;;;;;;;;;;;20.34;39.80;101459.84;7288681;19;151700;-50
2021/12/11 11:18:45;;;;;;;;;;;;;;;20.35;39.48;101458.72;7279401;19;153391;-50
2021/12/11 11:21:15;;;;;;;;;;;;;;;20.37;39.18;101467.66;7282674;19;152093;-50
2021/12/11 11:23:43;;;;;;;;;;;;;;;20.39;39.61;101457.00;7282452;19;152968;-50
2021/12/11 11:26:12;;;;;;;;;;;;;;;20.42;39.12;101470.44;7278136;19;153628;-50
2021/12/11 11:28:39;;;;;;;;;;;;;;;20.45;39.39;101478.25;7280485;19;152471;-50
2021/12/11 11:31:07;;;;;;;;;;;;;;;20.47;39.17;101477.97;7279371;19;153427;-50
2021/12/11 11:33:34;;;;;;;;;;;;;;;20.48;39.42;101474.88;7279130;19;153864;-50
2021/12/11 11:36:04;;;;;;;;;;;;;;;20.51;39.25;101474.28;7280016;19;152021;-50
2021/12/11 11:38:32;;;;;;;;;;;;;;;20.54;38.79;101481.25;7289025;19;153678;-50
2021/12/11 11:41:03;;;;;;;;;;;;;;;20.55;39.19;101472.53;7281164;19;151904;-49
2021/12/11 11:43:29;;;;;;;;;;;;;;;20.57;38.79;101480.69;7283064;19;153084;-50
2021/12/11 11:45:56;;;;;;;;;;;;;;;20.59;38.78;101478.41;7279541;19;153156;-51
2021/12/11 11:48:24;;;;;;;;;;;;;;;20.62;38.58;101477.81;7278933;19;152563;-51
2021/12/11 11:51:10;;;;;;;;;;;;;;;20.63;38.53;101471.88;7281912;19;152590;-50
2021/12/11 11:53:37;;;;;;;;;;;;;;;20.66;38.59;101476.09;7281476;19;153427;-50
2021/12/11 11:56:06;;;;;;;;;;;;;;;20.67;38.80;101483.41;7283384;19;153605;-51
2021/12/11 11:58:33;;;;;;;;;;;;;;;20.69;38.60;101481.09;7279293;19;153156;-51
2021/12/11 12:01:05;;;;;;;;;;;;;;;20.69;38.66;101487.56;7279930;19;153557;-50
2021/12/11 12:03:33;;;;;;;;;;;;;;;20.71;38.70;101484.47;7278717;19;152437;-51
2021/12/11 12:06:01;;;;;;;;;;;;;;;20.72;38.27;101481.34;7281020;19;153774;-51
2021/12/11 12:08:28;;;;;;;;;;;;;;;20.74;38.37;101475.44;7265548;19;153041;-51
2021/12/11 12:10:55;;;;;;;;;;;;;;;20.76;38.69;101467.53;7276549;19;153393;-51
2021/12/11 12:13:24;;;;;;;;;;;;;;;20.78;38.22;101459.66;7276060;19;152302;-51
2021/12/11 12:15:53;;;;;;;;;;;;;;;20.80;38.33;101463.84;7275035;19;152295;-50
2021/12/11 12:18:25;;;;;;;;;;;;;;;20.83;38.43;101466.06;7278991;19;152759;-50
2021/12/11 12:20:52;;;;;;;;;;;;;;;20.85;38.39;101458.16;7280400;19;153157;-50
2021/12/11 12:23:19;;;;;;;;;;;;;;;20.87;38.16;101457.88;7287057;19;151948;-51
2021/12/11 12:25:48;;;;;;;;;;;;;;;20.90;38.25;101457.28;7269890;19;153528;-50
2021/12/11 12:28:15;;;;;;;;;;;;;;;20.91;38.32;101446.88;7281028;19;152395;-50
2021/12/11 12:30:44;;;;;;;;;;;;;;;20.94;38.05;101435.88;7278798;19;152943;-51
2021/12/11 12:33:12;;;;;;;;;;;;;;;20.97;38.32;101437.25;7278623;19;153662;-51
2021/12/11 12:35:39;;;;;;;;;;;;;;;21.00;38.03;101445.91;7279845;19;151845;-51
2021/12/11 12:38:11;;;;;;;;;;;;;;;21.01;38.16;101450.41;7265223;19;153638;-51
2021/12/11 12:40:41;;;;;;;;;;;;;;;21.03;38.17;101456.56;7270555;19;154096;-51
2021/12/11 12:43:12;;;;;;;;;;;;;;;21.06;38.40;101463.56;7279590;19;152829;-51
2021/12/11 12:45:42;;;;;;;;;;;;;;;21.08;38.35;101441.59;7283417;19;153208;-51
2021/12/11 12:48:12;;;;;;;;;;;;;;;21.11;38.49;101449.44;7278883;19;152622;-51
2021/12/11 12:50:45;;;;;;;;;;;;;;;21.10;38.32;101450.59;7277717;19;152117;-51
2021/12/11 12:53:12;;;;;;;;;;;;;;;21.11;38.18;101441.88;7273577;19;153708;-50
2021/12/11 12:55:48;;;;;;;;;;;;;;;21.14;37.97;101440.44;7277692;19;152599;-51